sensor_id;sensor_type;location;lat;lon;timestamp;temperature;humidity
33105;DHT22;19476;51.448;6.674;2024-02-15T00:01:34;17.10;65.50
33105;DHT22;19476;51.448;6.674;2024-02-15T00:03:59;17.10;65.60
33105;DHT22;19476;51.448;6.674;2024-02-15T00:06:25;17.10;65.60
33105;DHT22;19476;51.448;6.674;2024-02-15T00:08:51;17.10;65.60
33105;DHT22;19476;51.448;6.674;2024-02-15T00:11:17;17.10;65.70
33105;DHT22;19476;51.448;6.674;2024-02-15T00:13:43;17.10;65.70
33105;DHT22;19476;51.448;6.674;2024-02-15T00:16:13;17.10;65.80
33105;DHT22;19476;51.448;6.674;2024-02-15T00:18:39;17.10;66.00
33105;DHT22;19476;51.448;6.674;2024-02-15T00:21:05;17.00;65.80
33105;DHT22;19476;51.448;6.674;2024-02-15T00:23:30;17.00;65.90
33105;DHT22;19476;51.448;6.674;2024-02-15T00:25:58;17.00;66.00
33105;DHT22;19476;51.448;6.674;2024-02-15T00:28:24;17.00;66.00
33105;DHT22;19476;51.448;6.674;2024-02-15T00:30:50;17.00;66.10
33105;DHT22;19476;51.448;6.674;2024-02-15T00:33:15;17.00;66.20
33105;DHT22;19476;51.448;6.674;2024-02-15T00:35:42;17.00;66.20
33105;DHT22;19476;51.448;6.674;2024-02-15T00:38:07;17.10;66.20
33105;DHT22;19476;51.448;6.674;2024-02-15T00:40:33;17.00;66.10
33105;DHT22;19476;51.448;6.674;2024-02-15T00:42:59;17.10;66.20
33105;DHT22;19476;51.448;6.674;2024-02-15T00:45:25;17.10;66.10
33105;DHT22;19476;51.448;6.674;2024-02-15T00:47:50;17.10;66.10
33105;DHT22;19476;51.448;6.674;2024-02-15T00:50:16;17.20;66.10
33105;DHT22;19476;51.448;6.674;2024-02-15T00:52:42;17.20;66.00
33105;DHT22;19476;51.448;6.674;2024-02-15T00:55:07;17.20;66.00
33105;DHT22;19476;51.448;6.674;2024-02-15T00:57:33;17.20;65.90
33105;DHT22;19476;51.448;6.674;2024-02-15T00:59:59;17.20;65.90
33105;DHT22;19476;51.448;6.674;2024-02-15T01:02:26;17.20;65.90
33105;DHT22;19476;51.448;6.674;2024-02-15T01:04:53;17.20;66.00
33105;DHT22;19476;51.448;6.674;2024-02-15T01:07:20;17.20;65.80
33105;DHT22;19476;51.448;6.674;2024-02-15T01:09:46;17.30;65.90
33105;DHT22;19476;51.448;6.674;2024-02-15T01:12:12;17.30;65.80
33105;DHT22;19476;51.448;6.674;2024-02-15T01:14:38;17.30;65.80
33105;DHT22;19476;51.448;6.674;2024-02-15T01:17:03;17.30;65.70
33105;DHT22;19476;51.448;6.674;2024-02-15T01:19:29;17.30;65.70
33105;DHT22;19476;51.448;6.674;2024-02-15T01:21:55;17.30;65.70
33105;DHT22;19476;51.448;6.674;2024-02-15T01:24:21;17.20;65.70
33105;DHT22;19476;51.448;6.674;2024-02-15T01:26:47;17.30;65.70
33105;DHT22;19476;51.448;6.674;2024-02-15T01:29:14;17.30;65.70
33105;DHT22;19476;51.448;6.674;2024-02-15T01:31:40;17.30;66.30
33105;DHT22;19476;51.448;6.674;2024-02-15T01:34:06;17.30;65.70
33105;DHT22;19476;51.448;6.674;2024-02-15T01:36:31;17.30;65.60
33105;DHT22;19476;51.448;6.674;2024-02-15T01:38:57;17.30;65.50
33105;DHT22;19476;51.448;6.674;2024-02-15T01:41:22;17.30;65.40
33105;DHT22;19476;51.448;6.674;2024-02-15T01:43:48;17.30;65.40
33105;DHT22;19476;51.448;6.674;2024-02-15T01:46:16;17.30;65.40
33105;DHT22;19476;51.448;6.674;2024-02-15T01:48:42;17.30;65.40
33105;DHT22;19476;51.448;6.674;2024-02-15T01:51:10;17.30;65.40
33105;DHT22;19476;51.448;6.674;2024-02-15T01:53:37;17.30;65.30
33105;DHT22;19476;51.448;6.674;2024-02-15T01:56:03;17.30;65.30
33105;DHT22;19476;51.448;6.674;2024-02-15T01:58:29;17.30;65.20
33105;DHT22;19476;51.448;6.674;2024-02-15T02:00:58;17.30;65.30
33105;DHT22;19476;51.448;6.674;2024-02-15T02:03:25;17.30;65.40
33105;DHT22;19476;51.448;6.674;2024-02-15T02:05:51;17.20;65.30
33105;DHT22;19476;51.448;6.674;2024-02-15T02:08:16;17.20;65.30
33105;DHT22;19476;51.448;6.674;2024-02-15T02:10:42;17.20;65.20
33105;DHT22;19476;51.448;6.674;2024-02-15T02:13:09;17.20;65.20
33105;DHT22;19476;51.448;6.674;2024-02-15T02:15:35;17.20;65.20
33105;DHT22;19476;51.448;6.674;2024-02-15T02:18:03;17.30;65.20
33105;DHT22;19476;51.448;6.674;2024-02-15T02:20:34;17.30;65.30
33105;DHT22;19476;51.448;6.674;2024-02-15T02:23:14;17.20;65.20
33105;DHT22;19476;51.448;6.674;2024-02-15T02:25:41;17.30;65.40
33105;DHT22;19476;51.448;6.674;2024-02-15T02:28:08;17.30;65.70
33105;DHT22;19476;51.448;6.674;2024-02-15T02:30:34;17.20;65.10
33105;DHT22;19476;51.448;6.674;2024-02-15T02:33:00;17.20;65.00
33105;DHT22;19476;51.448;6.674;2024-02-15T02:35:27;17.20;65.10
33105;DHT22;19476;51.448;6.674;2024-02-15T02:37:56;17.20;65.10
33105;DHT22;19476;51.448;6.674;2024-02-15T02:40:22;17.20;65.00
33105;DHT22;19476;51.448;6.674;2024-02-15T02:42:53;17.20;64.90
33105;DHT22;19476;51.448;6.674;2024-02-15T02:45:21;17.20;65.10
33105;DHT22;19476;51.448;6.674;2024-02-15T02:47:51;17.20;65.00
33105;DHT22;19476;51.448;6.674;2024-02-15T02:50:17;17.20;65.10
33105;DHT22;19476;51.448;6.674;2024-02-15T02:52:44;17.20;65.00
33105;DHT22;19476;51.448;6.674;2024-02-15T02:55:10;17.20;65.00
33105;DHT22;19476;51.448;6.674;2024-02-15T02:57:37;17.20;65.00
33105;DHT22;19476;51.448;6.674;2024-02-15T03:00:04;17.20;65.00
33105;DHT22;19476;51.448;6.674;2024-02-15T03:02:30;17.20;65.00
33105;DHT22;19476;51.448;6.674;2024-02-15T03:04:56;17.20;64.90
33105;DHT22;19476;51.448;6.674;2024-02-15T03:07:23;17.20;65.00
33105;DHT22;19476;51.448;6.674;2024-02-15T03:09:49;17.20;64.90
33105;DHT22;19476;51.448;6.674;2024-02-15T03:12:15;17.20;64.90
33105;DHT22;19476;51.448;6.674;2024-02-15T03:14:43;17.20;64.80
33105;DHT22;19476;51.448;6.674;2024-02-15T03:17:08;17.20;64.80
33105;DHT22;19476;51.448;6.674;2024-02-15T03:19:35;17.30;64.80
33105;DHT22;19476;51.448;6.674;2024-02-15T03:22:00;17.20;64.70
33105;DHT22;19476;51.448;6.674;2024-02-15T03:24:26;17.30;64.70
33105;DHT22;19476;51.448;6.674;2024-02-15T03:26:52;17.30;64.70
33105;DHT22;19476;51.448;6.674;2024-02-15T03:29:21;17.30;64.60
33105;DHT22;19476;51.448;6.674;2024-02-15T03:31:48;17.30;64.50
33105;DHT22;19476;51.448;6.674;2024-02-15T03:34:14;17.30;64.50
33105;DHT22;19476;51.448;6.674;2024-02-15T03:36:41;17.30;64.40
33105;DHT22;19476;51.448;6.674;2024-02-15T03:39:07;17.30;64.40
33105;DHT22;19476;51.448;6.674;2024-02-15T03:41:33;17.20;64.40
33105;DHT22;19476;51.448;6.674;2024-02-15T03:43:59;17.20;64.40
33105;DHT22;19476;51.448;6.674;2024-02-15T03:46:26;17.20;64.40
33105;DHT22;19476;51.448;6.674;2024-02-15T03:48:53;17.20;64.40
33105;DHT22;19476;51.448;6.674;2024-02-15T03:51:19;17.20;64.40
33105;DHT22;19476;51.448;6.674;2024-02-15T03:53:46;17.20;64.30
33105;DHT22;19476;51.448;6.674;2024-02-15T03:56:14;17.20;64.30
33105;DHT22;19476;51.448;6.674;2024-02-15T03:58:39;17.20;64.40
33105;DHT22;19476;51.448;6.674;2024-02-15T04:01:05;17.20;64.40
33105;DHT22;19476;51.448;6.674;2024-02-15T04:03:32;17.20;64.40
33105;DHT22;19476;51.448;6.674;2024-02-15T04:05:59;17.20;64.40
33105;DHT22;19476;51.448;6.674;2024-02-15T04:08:25;17.20;64.50
33105;DHT22;19476;51.448;6.674;2024-02-15T04:10:51;17.10;64.30
33105;DHT22;19476;51.448;6.674;2024-02-15T04:13:17;17.20;64.50
33105;DHT22;19476;51.448;6.674;2024-02-15T04:15:43;17.20;64.30
33105;DHT22;19476;51.448;6.674;2024-02-15T04:18:09;17.10;64.30
33105;DHT22;19476;51.448;6.674;2024-02-15T04:20:36;17.10;64.30
33105;DHT22;19476;51.448;6.674;2024-02-15T04:23:02;17.10;64.30
33105;DHT22;19476;51.448;6.674;2024-02-15T04:25:28;17.10;64.30
33105;DHT22;19476;51.448;6.674;2024-02-15T04:27:53;17.10;64.50
33105;DHT22;19476;51.448;6.674;2024-02-15T04:30:20;17.10;64.50
33105;DHT22;19476;51.448;6.674;2024-02-15T04:32:46;17.10;64.50
33105;DHT22;19476;51.448;6.674;2024-02-15T04:35:12;17.00;64.50
33105;DHT22;19476;51.448;6.674;2024-02-15T04:37:38;17.00;64.40
33105;DHT22;19476;51.448;6.674;2024-02-15T04:40:04;17.00;64.40
33105;DHT22;19476;51.448;6.674;2024-02-15T04:42:36;17.00;64.50
33105;DHT22;19476;51.448;6.674;2024-02-15T04:45:05;17.00;64.50
33105;DHT22;19476;51.448;6.674;2024-02-15T04:47:36;17.00;64.50
33105;DHT22;19476;51.448;6.674;2024-02-15T04:50:03;17.00;64.50
33105;DHT22;19476;51.448;6.674;2024-02-15T04:52:31;17.00;64.50
33105;DHT22;19476;51.448;6.674;2024-02-15T04:54:56;16.90;64.40
33105;DHT22;19476;51.448;6.674;2024-02-15T04:57:25;16.90;64.40
33105;DHT22;19476;51.448;6.674;2024-02-15T04:59:58;16.90;64.60
33105;DHT22;19476;51.448;6.674;2024-02-15T05:02:25;16.90;64.50
33105;DHT22;19476;51.448;6.674;2024-02-15T05:04:51;16.90;64.50
33105;DHT22;19476;51.448;6.674;2024-02-15T05:07:22;16.90;64.50
33105;DHT22;19476;51.448;6.674;2024-02-15T05:09:49;16.90;64.50
33105;DHT22;19476;51.448;6.674;2024-02-15T05:12:24;16.90;64.50
33105;DHT22;19476;51.448;6.674;2024-02-15T05:14:50;16.80;64.50
33105;DHT22;19476;51.448;6.674;2024-02-15T05:17:17;16.90;64.40
33105;DHT22;19476;51.448;6.674;2024-02-15T05:19:42;16.80;64.50
33105;DHT22;19476;51.448;6.674;2024-02-15T05:22:08;16.80;64.50
33105;DHT22;19476;51.448;6.674;2024-02-15T05:24:34;16.80;64.60
33105;DHT22;19476;51.448;6.674;2024-02-15T05:26:59;16.80;64.50
33105;DHT22;19476;51.448;6.674;2024-02-15T05:29:26;16.80;64.50
33105;DHT22;19476;51.448;6.674;2024-02-15T05:31:53;16.80;64.50
33105;DHT22;19476;51.448;6.674;2024-02-15T05:34:20;16.70;65.00
33105;DHT22;19476;51.448;6.674;2024-02-15T05:36:46;16.80;64.60
33105;DHT22;19476;51.448;6.674;2024-02-15T05:39:13;16.70;64.50
33105;DHT22;19476;51.448;6.674;2024-02-15T05:41:40;16.70;64.40
33105;DHT22;19476;51.448;6.674;2024-02-15T05:44:06;16.70;64.40
33105;DHT22;19476;51.448;6.674;2024-02-15T05:46:34;16.70;64.50
33105;DHT22;19476;51.448;6.674;2024-02-15T05:49:02;16.70;64.50
33105;DHT22;19476;51.448;6.674;2024-02-15T05:51:30;16.70;64.50
33105;DHT22;19476;51.448;6.674;2024-02-15T05:53:57;16.70;64.50
33105;DHT22;19476;51.448;6.674;2024-02-15T05:56:25;16.70;64.50
33105;DHT22;19476;51.448;6.674;2024-02-15T05:58:52;16.70;64.50
33105;DHT22;19476;51.448;6.674;2024-02-15T06:01:18;16.70;64.60
33105;DHT22;19476;51.448;6.674;2024-02-15T06:03:43;16.70;64.60
33105;DHT22;19476;51.448;6.674;2024-02-15T06:06:10;16.80;64.60
33105;DHT22;19476;51.448;6.674;2024-02-15T06:08:37;16.80;64.60
33105;DHT22;19476;51.448;6.674;2024-02-15T06:11:04;16.80;64.70
33105;DHT22;19476;51.448;6.674;2024-02-15T06:13:31;16.80;64.70
33105;DHT22;19476;51.448;6.674;2024-02-15T06:15:56;16.80;64.50
33105;DHT22;19476;51.448;6.674;2024-02-15T06:18:29;16.80;64.40
33105;DHT22;19476;51.448;6.674;2024-02-15T06:20:55;16.80;64.50
33105;DHT22;19476;51.448;6.674;2024-02-15T06:23:31;16.80;64.40
33105;DHT22;19476;51.448;6.674;2024-02-15T06:25:59;16.80;64.30
33105;DHT22;19476;51.448;6.674;2024-02-15T06:28:26;16.90;64.40
33105;DHT22;19476;51.448;6.674;2024-02-15T06:31:11;16.80;64.30
33105;DHT22;19476;51.448;6.674;2024-02-15T06:33:56;16.80;64.30
33105;DHT22;19476;51.448;6.674;2024-02-15T06:36:52;16.90;64.40
33105;DHT22;19476;51.448;6.674;2024-02-15T06:39:36;16.90;64.40
33105;DHT22;19476;51.448;6.674;2024-02-15T06:42:13;16.90;64.30
33105;DHT22;19476;51.448;6.674;2024-02-15T06:44:46;16.90;64.40
33105;DHT22;19476;51.448;6.674;2024-02-15T06:47:12;16.90;64.40
33105;DHT22;19476;51.448;6.674;2024-02-15T06:49:39;17.00;64.50
33105;DHT22;19476;51.448;6.674;2024-02-15T06:52:10;17.00;64.40
33105;DHT22;19476;51.448;6.674;2024-02-15T06:54:40;17.00;64.30
33105;DHT22;19476;51.448;6.674;2024-02-15T06:57:06;17.20;64.40
33105;DHT22;19476;51.448;6.674;2024-02-15T06:59:33;17.00;64.20
33105;DHT22;19476;51.448;6.674;2024-02-15T07:02:00;17.00;64.10
33105;DHT22;19476;51.448;6.674;2024-02-15T07:04:26;17.00;64.10
33105;DHT22;19476;51.448;6.674;2024-02-15T07:06:52;17.00;63.90
33105;DHT22;19476;51.448;6.674;2024-02-15T07:09:20;17.00;63.80
33105;DHT22;19476;51.448;6.674;2024-02-15T07:11:47;17.10;63.80
33105;DHT22;19476;51.448;6.674;2024-02-15T07:14:13;17.00;63.80
33105;DHT22;19476;51.448;6.674;2024-02-15T07:16:39;17.00;63.70
33105;DHT22;19476;51.448;6.674;2024-02-15T07:19:06;17.00;63.80
33105;DHT22;19476;51.448;6.674;2024-02-15T07:21:36;17.00;63.80
33105;DHT22;19476;51.448;6.674;2024-02-15T07:24:06;17.00;63.90
33105;DHT22;19476;51.448;6.674;2024-02-15T07:26:33;17.00;64.00
33105;DHT22;19476;51.448;6.674;2024-02-15T07:29:02;16.90;63.80
33105;DHT22;19476;51.448;6.674;2024-02-15T07:31:31;16.90;64.00
33105;DHT22;19476;51.448;6.674;2024-02-15T07:33:57;16.90;64.10
33105;DHT22;19476;51.448;6.674;2024-02-15T07:36:23;16.90;64.10
33105;DHT22;19476;51.448;6.674;2024-02-15T07:38:50;16.90;64.20
33105;DHT22;19476;51.448;6.674;2024-02-15T07:41:21;16.80;64.30
33105;DHT22;19476;51.448;6.674;2024-02-15T07:43:48;16.80;64.50
33105;DHT22;19476;51.448;6.674;2024-02-15T07:46:15;16.80;64.40
33105;DHT22;19476;51.448;6.674;2024-02-15T07:48:42;16.80;64.50
33105;DHT22;19476;51.448;6.674;2024-02-15T07:51:17;16.80;64.60
33105;DHT22;19476;51.448;6.674;2024-02-15T07:53:44;16.80;64.70
33105;DHT22;19476;51.448;6.674;2024-02-15T07:56:10;16.80;64.60
33105;DHT22;19476;51.448;6.674;2024-02-15T07:58:41;16.80;64.70
33105;DHT22;19476;51.448;6.674;2024-02-15T08:01:08;16.80;64.90
33105;DHT22;19476;51.448;6.674;2024-02-15T08:03:35;16.80;64.80
33105;DHT22;19476;51.448;6.674;2024-02-15T08:06:02;16.80;64.80
33105;DHT22;19476;51.448;6.674;2024-02-15T08:08:34;16.80;64.90
33105;DHT22;19476;51.448;6.674;2024-02-15T08:11:04;16.80;65.00
33105;DHT22;19476;51.448;6.674;2024-02-15T08:13:30;16.80;65.00
33105;DHT22;19476;51.448;6.674;2024-02-15T08:15:56;16.80;64.90
33105;DHT22;19476;51.448;6.674;2024-02-15T08:18:21;16.80;64.90
33105;DHT22;19476;51.448;6.674;2024-02-15T08:20:47;16.80;65.00
33105;DHT22;19476;51.448;6.674;2024-02-15T08:23:13;16.70;65.10
33105;DHT22;19476;51.448;6.674;2024-02-15T08:25:39;16.80;65.30
33105;DHT22;19476;51.448;6.674;2024-02-15T08:28:07;16.80;65.30
33105;DHT22;19476;51.448;6.674;2024-02-15T08:30:33;16.70;65.30
33105;DHT22;19476;51.448;6.674;2024-02-15T08:32:59;16.70;65.40
33105;DHT22;19476;51.448;6.674;2024-02-15T08:35:25;16.70;65.40
33105;DHT22;19476;51.448;6.674;2024-02-15T08:37:51;16.70;65.60
33105;DHT22;19476;51.448;6.674;2024-02-15T08:40:18;16.70;65.70
33105;DHT22;19476;51.448;6.674;2024-02-15T08:42:50;16.70;65.60
33105;DHT22;19476;51.448;6.674;2024-02-15T08:45:15;16.70;65.70
33105;DHT22;19476;51.448;6.674;2024-02-15T08:47:42;16.70;65.70
33105;DHT22;19476;51.448;6.674;2024-02-15T08:50:09;16.80;65.90
33105;DHT22;19476;51.448;6.674;2024-02-15T08:52:36;16.70;65.90
33105;DHT22;19476;51.448;6.674;2024-02-15T08:55:12;16.80;66.10
33105;DHT22;19476;51.448;6.674;2024-02-15T08:57:42;16.80;66.10
33105;DHT22;19476;51.448;6.674;2024-02-15T09:00:10;16.80;66.10
33105;DHT22;19476;51.448;6.674;2024-02-15T09:02:40;16.80;66.20
33105;DHT22;19476;51.448;6.674;2024-02-15T09:05:06;16.80;66.20
33105;DHT22;19476;51.448;6.674;2024-02-15T09:07:32;16.80;66.20
33105;DHT22;19476;51.448;6.674;2024-02-15T09:09:58;16.80;66.20
33105;DHT22;19476;51.448;6.674;2024-02-15T09:12:24;16.90;66.30
33105;DHT22;19476;51.448;6.674;2024-02-15T09:14:50;16.90;66.30
33105;DHT22;19476;51.448;6.674;2024-02-15T09:17:16;16.90;66.20
33105;DHT22;19476;51.448;6.674;2024-02-15T09:19:41;16.90;66.20
33105;DHT22;19476;51.448;6.674;2024-02-15T09:22:07;17.10;66.30
33105;DHT22;19476;51.448;6.674;2024-02-15T09:24:33;16.90;66.10
33105;DHT22;19476;51.448;6.674;2024-02-15T09:27:02;16.90;66.20
33105;DHT22;19476;51.448;6.674;2024-02-15T09:29:30;17.00;66.20
33105;DHT22;19476;51.448;6.674;2024-02-15T09:31:58;17.00;66.20
33105;DHT22;19476;51.448;6.674;2024-02-15T09:34:24;17.00;66.10
33105;DHT22;19476;51.448;6.674;2024-02-15T09:36:50;17.00;66.10
33105;DHT22;19476;51.448;6.674;2024-02-15T09:39:17;17.00;66.10
33105;DHT22;19476;51.448;6.674;2024-02-15T09:41:43;17.00;66.10
33105;DHT22;19476;51.448;6.674;2024-02-15T09:44:09;17.00;66.10
33105;DHT22;19476;51.448;6.674;2024-02-15T09:46:38;17.00;66.00
33105;DHT22;19476;51.448;6.674;2024-02-15T09:49:07;17.00;66.10
33105;DHT22;19476;51.448;6.674;2024-02-15T09:51:33;17.00;66.00
33105;DHT22;19476;51.448;6.674;2024-02-15T09:53:59;17.00;66.00
33105;DHT22;19476;51.448;6.674;2024-02-15T09:56:26;17.00;66.10
33105;DHT22;19476;51.448;6.674;2024-02-15T09:58:54;17.10;66.10
33105;DHT22;19476;51.448;6.674;2024-02-15T10:01:22;17.10;66.00
33105;DHT22;19476;51.448;6.674;2024-02-15T10:03:49;17.10;66.10
33105;DHT22;19476;51.448;6.674;2024-02-15T10:06:18;17.20;66.10
33105;DHT22;19476;51.448;6.674;2024-02-15T10:08:44;17.20;66.20
33105;DHT22;19476;51.448;6.674;2024-02-15T10:11:12;17.20;65.70
33105;DHT22;19476;51.448;6.674;2024-02-15T10:13:38;17.20;65.60
33105;DHT22;19476;51.448;6.674;2024-02-15T10:16:18;17.30;65.60
33105;DHT22;19476;51.448;6.674;2024-02-15T10:18:47;17.30;65.50
33105;DHT22;19476;51.448;6.674;2024-02-15T10:21:31;17.30;65.20
33105;DHT22;19476;51.448;6.674;2024-02-15T10:24:05;17.30;65.00
33105;DHT22;19476;51.448;6.674;2024-02-15T10:26:32;17.40;64.80
33105;DHT22;19476;51.448;6.674;2024-02-15T10:29:10;17.40;64.90
33105;DHT22;19476;51.448;6.674;2024-02-15T10:31:40;17.40;64.60
33105;DHT22;19476;51.448;6.674;2024-02-15T10:34:08;17.40;64.60
33105;DHT22;19476;51.448;6.674;2024-02-15T10:36:34;17.40;64.50
33105;DHT22;19476;51.448;6.674;2024-02-15T10:39:19;17.40;64.50
33105;DHT22;19476;51.448;6.674;2024-02-15T10:41:54;17.40;64.40
33105;DHT22;19476;51.448;6.674;2024-02-15T10:44:21;17.40;64.10
33105;DHT22;19476;51.448;6.674;2024-02-15T10:46:49;17.50;64.30
33105;DHT22;19476;51.448;6.674;2024-02-15T10:49:22;17.50;64.20
33105;DHT22;19476;51.448;6.674;2024-02-15T10:51:52;17.50;64.20
33105;DHT22;19476;51.448;6.674;2024-02-15T10:57:05;17.60;63.40
33105;DHT22;19476;51.448;6.674;2024-02-15T10:59:35;17.60;63.60
33105;DHT22;19476;51.448;6.674;2024-02-15T11:04:39;17.70;63.20
33105;DHT22;19476;51.448;6.674;2024-02-15T11:07:07;17.70;63.70
33105;DHT22;19476;51.448;6.674;2024-02-15T11:09:33;17.70;62.80
33105;DHT22;19476;51.448;6.674;2024-02-15T11:11:59;17.80;63.00
33105;DHT22;19476;51.448;6.674;2024-02-15T11:14:28;17.80;63.30
33105;DHT22;19476;51.448;6.674;2024-02-15T11:16:58;17.80;62.70
33105;DHT22;19476;51.448;6.674;2024-02-15T11:21:58;17.90;62.40
33105;DHT22;19476;51.448;6.674;2024-02-15T11:24:28;17.90;62.40
33105;DHT22;19476;51.448;6.674;2024-02-15T11:26:58;18.00;62.20
33105;DHT22;19476;51.448;6.674;2024-02-15T11:29:50;18.00;62.00
33105;DHT22;19476;51.448;6.674;2024-02-15T11:35:08;18.10;61.60
33105;DHT22;19476;51.448;6.674;2024-02-15T11:40:22;18.10;61.70
33105;DHT22;19476;51.448;6.674;2024-02-15T11:42:57;18.20;62.00
33105;DHT22;19476;51.448;6.674;2024-02-15T11:45:28;18.20;61.30
33105;DHT22;19476;51.448;6.674;2024-02-15T11:47:58;18.30;61.80
33105;DHT22;19476;51.448;6.674;2024-02-15T11:50:27;18.30;61.70
33105;DHT22;19476;51.448;6.674;2024-02-15T11:53:02;18.40;61.30
33105;DHT22;19476;51.448;6.674;2024-02-15T11:55:34;18.40;61.20
33105;DHT22;19476;51.448;6.674;2024-02-15T11:58:02;18.50;61.40
33105;DHT22;19476;51.448;6.674;2024-02-15T12:00:34;18.50;61.40
33105;DHT22;19476;51.448;6.674;2024-02-15T12:03:19;18.60;61.70
33105;DHT22;19476;51.448;6.674;2024-02-15T12:06:04;18.70;61.10
33105;DHT22;19476;51.448;6.674;2024-02-15T12:08:51;18.80;61.10
33105;DHT22;19476;51.448;6.674;2024-02-15T12:11:35;18.90;60.80
33105;DHT22;19476;51.448;6.674;2024-02-15T12:14:19;19.00;60.60
33105;DHT22;19476;51.448;6.674;2024-02-15T12:17:06;19.10;60.10
33105;DHT22;19476;51.448;6.674;2024-02-15T12:19:52;19.20;60.40
33105;DHT22;19476;51.448;6.674;2024-02-15T12:22:25;19.30;59.90
33105;DHT22;19476;51.448;6.674;2024-02-15T12:24:59;19.40;59.20
33105;DHT22;19476;51.448;6.674;2024-02-15T12:27:26;19.40;58.70
33105;DHT22;19476;51.448;6.674;2024-02-15T12:29:59;19.50;58.70
33105;DHT22;19476;51.448;6.674;2024-02-15T12:35:46;19.60;57.90
33105;DHT22;19476;51.448;6.674;2024-02-15T12:38:13;19.70;58.40
33105;DHT22;19476;51.448;6.674;2024-02-15T12:40:44;19.80;58.00
33105;DHT22;19476;51.448;6.674;2024-02-15T12:43:10;19.80;57.80
33105;DHT22;19476;51.448;6.674;2024-02-15T12:45:39;19.90;57.80
33105;DHT22;19476;51.448;6.674;2024-02-15T12:48:09;20.00;57.40
33105;DHT22;19476;51.448;6.674;2024-02-15T12:50:36;20.10;57.10
33105;DHT22;19476;51.448;6.674;2024-02-15T12:53:02;20.20;57.10
33105;DHT22;19476;51.448;6.674;2024-02-15T12:55:34;20.30;56.80
33105;DHT22;19476;51.448;6.674;2024-02-15T12:58:04;20.40;56.60
33105;DHT22;19476;51.448;6.674;2024-02-15T13:00:34;20.40;56.50
33105;DHT22;19476;51.448;6.674;2024-02-15T13:03:06;20.50;56.70
33105;DHT22;19476;51.448;6.674;2024-02-15T13:05:35;20.60;55.60
33105;DHT22;19476;51.448;6.674;2024-02-15T13:08:04;20.60;55.70
33105;DHT22;19476;51.448;6.674;2024-02-15T13:10:35;20.70;55.50
33105;DHT22;19476;51.448;6.674;2024-02-15T13:13:01;20.70;55.10
33105;DHT22;19476;51.448;6.674;2024-02-15T13:15:27;20.70;55.10
33105;DHT22;19476;51.448;6.674;2024-02-15T13:17:55;20.70;55.10
33105;DHT22;19476;51.448;6.674;2024-02-15T13:20:22;20.70;54.40
33105;DHT22;19476;51.448;6.674;2024-02-15T13:23:05;20.70;54.60
33105;DHT22;19476;51.448;6.674;2024-02-15T13:25:36;20.80;54.60
33105;DHT22;19476;51.448;6.674;2024-02-15T13:28:06;20.80;54.80
33105;DHT22;19476;51.448;6.674;2024-02-15T13:30:34;20.80;54.20
33105;DHT22;19476;51.448;6.674;2024-02-15T13:33:01;20.80;54.20
33105;DHT22;19476;51.448;6.674;2024-02-15T13:35:27;20.80;54.20
33105;DHT22;19476;51.448;6.674;2024-02-15T13:37:54;20.80;54.20
33105;DHT22;19476;51.448;6.674;2024-02-15T13:40:23;20.80;54.00
33105;DHT22;19476;51.448;6.674;2024-02-15T13:42:51;20.80;53.70
33105;DHT22;19476;51.448;6.674;2024-02-15T13:45:27;20.80;53.50
33105;DHT22;19476;51.448;6.674;2024-02-15T13:47:56;20.80;53.00
33105;DHT22;19476;51.448;6.674;2024-02-15T13:50:23;20.60;53.30
33105;DHT22;19476;51.448;6.674;2024-02-15T13:52:50;20.80;53.60
33105;DHT22;19476;51.448;6.674;2024-02-15T13:55:17;20.80;53.50
33105;DHT22;19476;51.448;6.674;2024-02-15T13:57:45;20.80;53.70
33105;DHT22;19476;51.448;6.674;2024-02-15T14:00:17;20.90;53.60
33105;DHT22;19476;51.448;6.674;2024-02-15T14:02:55;21.00;53.20
33105;DHT22;19476;51.448;6.674;2024-02-15T14:05:23;21.20;53.60
33105;DHT22;19476;51.448;6.674;2024-02-15T14:08:04;21.30;53.00
33105;DHT22;19476;51.448;6.674;2024-02-15T14:10:35;21.40;52.60
33105;DHT22;19476;51.448;6.674;2024-02-15T14:13:02;21.50;52.40
33105;DHT22;19476;51.448;6.674;2024-02-15T14:15:32;21.60;53.00
33105;DHT22;19476;51.448;6.674;2024-02-15T14:18:06;21.80;52.10
33105;DHT22;19476;51.448;6.674;2024-02-15T14:20:31;21.90;51.30
33105;DHT22;19476;51.448;6.674;2024-02-15T14:22:58;22.00;50.80
33105;DHT22;19476;51.448;6.674;2024-02-15T14:25:28;22.20;51.10
33105;DHT22;19476;51.448;6.674;2024-02-15T14:27:57;22.20;50.40
33105;DHT22;19476;51.448;6.674;2024-02-15T14:30:23;22.30;49.70
33105;DHT22;19476;51.448;6.674;2024-02-15T14:33:08;22.30;50.00
33105;DHT22;19476;51.448;6.674;2024-02-15T14:35:37;22.30;49.50
33105;DHT22;19476;51.448;6.674;2024-02-15T14:38:06;22.30;49.40
33105;DHT22;19476;51.448;6.674;2024-02-15T14:40:41;22.20;49.10
33105;DHT22;19476;51.448;6.674;2024-02-15T14:43:08;22.20;49.00
33105;DHT22;19476;51.448;6.674;2024-02-15T14:45:38;22.10;49.00
33105;DHT22;19476;51.448;6.674;2024-02-15T14:48:09;22.00;48.60
33105;DHT22;19476;51.448;6.674;2024-02-15T14:50:39;22.00;48.90
33105;DHT22;19476;51.448;6.674;2024-02-15T14:53:05;21.90;48.80
33105;DHT22;19476;51.448;6.674;2024-02-15T14:55:36;21.90;49.10
33105;DHT22;19476;51.448;6.674;2024-02-15T14:58:06;21.80;49.30
33105;DHT22;19476;51.448;6.674;2024-02-15T15:00:33;21.80;49.20
33105;DHT22;19476;51.448;6.674;2024-02-15T15:02:59;21.70;49.40
33105;DHT22;19476;51.448;6.674;2024-02-15T15:05:25;21.60;49.60
33105;DHT22;19476;51.448;6.674;2024-02-15T15:08:09;21.60;49.80
33105;DHT22;19476;51.448;6.674;2024-02-15T15:10:54;21.50;49.70
33105;DHT22;19476;51.448;6.674;2024-02-15T15:13:40;21.50;49.80
33105;DHT22;19476;51.448;6.674;2024-02-15T15:16:18;21.40;50.00
33105;DHT22;19476;51.448;6.674;2024-02-15T15:18:49;21.30;50.20
33105;DHT22;19476;51.448;6.674;2024-02-15T15:21:21;21.30;49.80
33105;DHT22;19476;51.448;6.674;2024-02-15T15:23:53;21.20;49.80
33105;DHT22;19476;51.448;6.674;2024-02-15T15:26:22;21.10;50.10
33105;DHT22;19476;51.448;6.674;2024-02-15T15:28:48;21.10;50.00
33105;DHT22;19476;51.448;6.674;2024-02-15T15:31:15;21.00;50.30
33105;DHT22;19476;51.448;6.674;2024-02-15T15:33:42;20.90;50.40
33105;DHT22;19476;51.448;6.674;2024-02-15T15:36:08;20.90;50.30
33105;DHT22;19476;51.448;6.674;2024-02-15T15:38:35;20.80;50.40
33105;DHT22;19476;51.448;6.674;2024-02-15T15:41:01;20.70;50.60
33105;DHT22;19476;51.448;6.674;2024-02-15T15:43:29;20.70;51.00
33105;DHT22;19476;51.448;6.674;2024-02-15T15:45:54;20.70;51.00
33105;DHT22;19476;51.448;6.674;2024-02-15T15:48:22;20.60;51.30
33105;DHT22;19476;51.448;6.674;2024-02-15T15:50:48;20.60;51.40
33105;DHT22;19476;51.448;6.674;2024-02-15T15:53:14;20.60;51.50
33105;DHT22;19476;51.448;6.674;2024-02-15T15:55:40;20.60;51.50